Time;durP1;ratioP1;P1;durP2;ratioP2;P2;SDS_P1;SDS_P2;PMS_P1;PMS_P2;Temp;Humidity;BMP_temperature;BMP_pressure;BME280_temperature;BME280_humidity;BME280_pressure;Samples;Min_cycle;Max_cycle;Signal;HPM_P1;HPM_P2
2022/07/25 00:01:10;;;;;;;0.20;0.10;;;25.10;51.30;;;;;;6234565;28;20059;-44
2022/07/25 00:04:13;;;;;;;0.20;0.17;;;25.00;51.20;;;;;;6252113;28;20108;-44
2022/07/25 00:07:15;;;;;;;0.10;0.10;;;25.00;51.30;;;;;;6258525;28;20301;-44
2022/07/25 00:10:20;;;;;;;0.20;0.20;;;24.90;51.30;;;;;;6258098;28;20044;-45
2022/07/25 00:13:22;;;;;;;0.20;0.20;;;25.00;51.40;;;;;;6260215;28;20036;-45
2022/07/25 00:16:23;;;;;;;0.30;0.28;;;24.90;51.50;;;;;;6260766;28;20051;-47
2022/07/25 00:19:26;;;;;;;0.20;0.13;;;25.00;51.50;;;;;;6257320;28;20113;-42
2022/07/25 00:22:28;;;;;;;0.35;0.22;;;24.90;51.60;;;;;;6256944;28;20036;-48
2022/07/25 00:25:29;;;;;;;0.10;0.10;;;24.90;51.70;;;;;;6255954;28;20125;-45
2022/07/25 00:28:31;;;;;;;0.30;0.20;;;24.90;51.70;;;;;;6258322;28;20045;-45
2022/07/25 00:31:33;;;;;;;0.20;0.20;;;24.90;51.80;;;;;;6249761;28;20121;-44
2022/07/25 00:34:35;;;;;;;0.10;0.10;;;24.80;51.80;;;;;;6237761;28;20211;-45
2022/07/25 00:37:38;;;;;;;0.10;0.10;;;24.90;51.90;;;;;;6257400;28;20155;-42
2022/07/25 00:40:40;;;;;;;0.45;0.20;;;24.90;51.90;;;;;;6254220;28;20040;-45
2022/07/25 00:43:43;;;;;;;0.30;0.20;;;24.90;52.00;;;;;;6258395;28;20044;-47
2022/07/25 00:46:44;;;;;;;0.10;0.10;;;24.90;52.10;;;;;;6220803;28;20296;-42
2022/07/25 00:49:46;;;;;;;0.20;0.20;;;24.90;52.20;;;;;;6247093;28;20078;-44
2022/07/25 00:52:49;;;;;;;0.20;0.10;;;24.80;52.20;;;;;;6248004;28;20371;-46
2022/07/25 00:55:51;;;;;;;0.20;0.20;;;24.70;52.10;;;;;;6239891;28;20044;-47
2022/07/25 00:58:53;;;;;;;0.38;0.30;;;24.80;52.30;;;;;;6242417;28;20044;-44
2022/07/25 01:01:55;;;;;;;0.20;0.20;;;24.80;52.30;;;;;;6242888;28;20040;-44
2022/07/25 01:05:01;;;;;;;0.10;0.10;;;24.80;52.40;;;;;;6232339;28;20066;-42
2022/07/25 01:08:03;;;;;;;0.47;0.20;;;24.70;52.50;;;;;;6244710;28;20052;-43
2022/07/25 01:11:05;;;;;;;0.10;0.10;;;24.80;52.60;;;;;;6225155;28;20405;-43
2022/07/25 01:14:07;;;;;;;0.10;0.10;;;24.80;52.70;;;;;;6245366;28;20131;-44
2022/07/25 01:17:09;;;;;;;0.20;0.20;;;24.90;52.80;;;;;;6244794;28;20040;-44
2022/07/25 01:20:14;;;;;;;0.20;0.10;;;24.70;52.80;;;;;;6250202;28;20036;-41
2022/07/25 01:23:15;;;;;;;0.10;0.10;;;24.80;53.00;;;;;;6247077;28;20139;-44
2022/07/25 01:26:17;;;;;;;0.20;0.20;;;24.80;53.20;;;;;;6214488;28;20370;-43
2022/07/25 01:29:18;;;;;;;0.10;0.10;;;24.80;53.30;;;;;;6245459;28;20047;-45
2022/07/25 01:32:20;;;;;;;0.13;0.13;;;24.70;53.40;;;;;;6244821;28;20121;-44
2022/07/25 01:35:22;;;;;;;0.22;0.20;;;24.70;53.60;;;;;;6246483;28;20299;-46
2022/07/25 01:38:24;;;;;;;0.40;0.15;;;24.70;53.70;;;;;;6231180;28;20079;-44
2022/07/25 01:41:28;;;;;;;0.35;0.20;;;24.70;53.80;;;;;;6241458;28;20532;-48
2022/07/25 01:44:30;;;;;;;0.10;0.10;;;24.80;54.10;;;;;;6214893;28;20423;-46
2022/07/25 01:47:31;;;;;;;0.13;0.10;;;24.70;54.20;;;;;;6222648;28;20047;-42
2022/07/25 01:50:33;;;;;;;0.10;0.10;;;24.70;53.90;;;;;;6240753;28;20143;-43
2022/07/25 01:53:38;;;;;;;0.10;0.10;;;24.50;54.50;;;;;;6236144;28;20741;-44
2022/07/25 01:56:42;;;;;;;0.20;0.20;;;24.60;54.60;;;;;;6222487;28;20689;-44
2022/07/25 01:59:47;;;;;;;0.08;0.08;;;24.90;54.90;;;;;;6232797;28;20092;-44
2022/07/25 02:03:28;;;;;;;0.28;0.20;;;24.70;54.90;;;;;;6214839;28;20495;-43
2022/07/25 02:06:10;;;;;;;;;;;24.70;55.10;;;;;;6220624;28;20928;-43
2022/07/25 02:09:12;;;;;;;0.52;0.20;;;24.70;55.00;;;;;;6245094;28;20293;-44
2022/07/25 02:12:13;;;;;;;0.10;0.10;;;24.70;55.00;;;;;;6228564;28;20237;-40
2022/07/25 02:15:15;;;;;;;0.15;0.15;;;24.70;55.40;;;;;;6220281;28;20703;-45
2022/07/25 02:18:16;;;;;;;0.10;0.10;;;24.60;55.50;;;;;;6239920;28;20802;-41
2022/07/25 02:21:18;;;;;;;0.20;0.20;;;24.70;55.60;;;;;;6243596;28;20969;-46
2022/07/25 02:24:20;;;;;;;0.10;0.10;;;24.60;55.70;;;;;;6224481;28;20192;-44
2022/07/25 02:27:21;;;;;;;0.20;0.10;;;24.70;55.70;;;;;;6237272;28;20823;-44
2022/07/25 02:30:23;;;;;;;0.10;0.10;;;24.80;55.80;;;;;;6242525;28;20280;-48
2022/07/25 02:33:25;;;;;;;0.40;0.10;;;24.70;55.90;;;;;;6240599;28;20618;-47
2022/07/25 02:36:27;;;;;;;0.10;0.10;;;24.70;55.90;;;;;;6245689;28;20040;-44
2022/07/25 02:39:28;;;;;;;0.20;0.20;;;24.70;55.80;;;;;;6243693;28;20052;-45
2022/07/25 02:42:30;;;;;;;0.65;0.20;;;24.70;55.90;;;;;;6238300;28;20305;-41
2022/07/25 02:45:32;;;;;;;0.20;0.20;;;24.70;55.90;;;;;;6221212;28;20080;-44
2022/07/25 02:48:35;;;;;;;0.40;0.20;;;24.70;56.00;;;;;;6243992;28;20428;-45
2022/07/25 02:51:37;;;;;;;0.20;0.20;;;24.80;56.10;;;;;;6245370;28;20218;-45
2022/07/25 02:54:39;;;;;;;0.17;0.10;;;24.80;56.20;;;;;;6244573;28;20521;-43
2022/07/25 02:57:40;;;;;;;0.10;0.10;;;24.70;56.20;;;;;;6237684;28;20745;-46
2022/07/25 03:00:42;;;;;;;0.20;0.10;;;24.80;56.40;;;;;;6241285;28;20225;-42
2022/07/25 03:03:45;;;;;;;0.10;0.10;;;24.70;56.40;;;;;;6239429;28;20926;-44
2022/07/25 03:06:47;;;;;;;0.10;0.10;;;24.70;56.50;;;;;;6227748;28;20617;-48
2022/07/25 03:09:49;;;;;;;0.10;0.10;;;24.80;56.70;;;;;;6242876;28;21203;-46
2022/07/25 03:12:51;;;;;;;0.10;0.10;;;24.80;56.70;;;;;;6237070;28;20128;-45
2022/07/25 03:15:52;;;;;;;0.15;0.10;;;24.70;56.70;;;;;;6240758;28;20533;-42
2022/07/25 03:18:54;;;;;;;0.10;0.10;;;24.90;56.90;;;;;;6246821;28;20208;-46
2022/07/25 03:21:56;;;;;;;0.15;0.10;;;24.70;56.90;;;;;;6246072;28;20986;-47
2022/07/25 03:24:57;;;;;;;0.20;0.10;;;24.90;57.10;;;;;;6225661;28;20131;-43
2022/07/25 03:27:59;;;;;;;0.20;0.20;;;24.80;57.20;;;;;;6248972;28;20047;-43
2022/07/25 03:31:00;;;;;;;0.13;0.13;;;24.80;57.30;;;;;;6248809;28;20083;-43
2022/07/25 03:34:02;;;;;;;0.10;0.10;;;24.80;57.40;;;;;;6240344;28;20050;-44
2022/07/25 03:37:04;;;;;;;0.20;0.20;;;24.70;57.30;;;;;;6247327;28;20047;-45
2022/07/25 03:40:07;;;;;;;0.13;0.13;;;24.70;57.50;;;;;;6249121;28;20055;-41
2022/07/25 03:43:08;;;;;;;0.20;0.20;;;24.80;57.60;;;;;;6246970;28;20140;-45
2022/07/25 03:46:10;;;;;;;0.20;0.20;;;24.70;57.60;;;;;;6221478;28;20060;-44
2022/07/25 03:49:12;;;;;;;0.15;0.15;;;24.90;57.80;;;;;;6246179;28;20036;-47
2022/07/25 03:52:14;;;;;;;0.17;0.10;;;24.90;57.90;;;;;;6241511;28;20197;-44
2022/07/25 03:55:15;;;;;;;0.30;0.10;;;24.90;58.00;;;;;;6222566;28;20648;-41
2022/07/25 03:58:17;;;;;;;0.20;0.20;;;24.90;58.10;;;;;;6241714;28;20343;-42
2022/07/25 04:01:19;;;;;;;0.10;0.10;;;24.70;58.10;;;;;;6234451;28;20365;-44
2022/07/25 04:04:22;;;;;;;0.30;0.15;;;24.90;58.30;;;;;;6226549;28;21075;-44
2022/07/25 04:07:24;;;;;;;0.20;0.10;;;24.80;58.30;;;;;;6231992;28;20048;-46
2022/07/25 04:10:26;;;;;;;0.10;0.10;;;24.80;58.50;;;;;;6247093;28;20028;-44
2022/07/25 04:13:28;;;;;;;0.20;0.20;;;24.80;58.60;;;;;;6220074;28;20052;-48
2022/07/25 04:16:30;;;;;;;0.20;0.10;;;24.80;58.60;;;;;;6234823;28;20158;-44
2022/07/25 04:19:32;;;;;;;0.32;0.10;;;24.80;58.70;;;;;;6227520;28;20047;-44
2022/07/25 04:22:34;;;;;;;0.13;0.10;;;24.80;58.90;;;;;;6244929;28;20040;-43
2022/07/25 04:25:36;;;;;;;0.20;0.20;;;24.90;59.00;;;;;;6237576;28;20375;-42
2022/07/25 04:28:38;;;;;;;0.10;0.10;;;24.80;59.10;;;;;;6240901;28;20087;-41
2022/07/25 04:31:39;;;;;;;0.20;0.20;;;24.90;59.20;;;;;;6238777;28;20163;-44
2022/07/25 04:34:42;;;;;;;0.20;0.17;;;24.90;59.90;;;;;;6223730;28;20071;-44
2022/07/25 04:37:44;;;;;;;0.20;0.20;;;24.80;59.30;;;;;;6211652;28;20346;-45
2022/07/25 04:40:46;;;;;;;0.10;0.10;;;24.90;59.50;;;;;;6237678;28;20284;-43
2022/07/25 04:43:48;;;;;;;0.17;0.17;;;24.80;59.50;;;;;;6238180;28;20146;-46
2022/07/25 04:46:50;;;;;;;0.28;0.22;;;24.80;59.60;;;;;;6223617;28;20605;-42
2022/07/25 04:49:52;;;;;;;0.10;0.10;;;24.80;59.70;;;;;;6243214;28;20039;-44
2022/07/25 04:52:54;;;;;;;0.30;0.20;;;24.90;59.80;;;;;;6240130;28;20200;-42
2022/07/25 04:55:55;;;;;;;0.15;0.15;;;24.80;59.80;;;;;;6213011;28;20507;-44
2022/07/25 04:58:57;;;;;;;0.20;0.20;;;24.80;60.00;;;;;;6219261;28;20055;-44
2022/07/25 05:02:04;;;;;;;0.50;0.20;;;24.90;60.10;;;;;;6240245;28;20043;-44
2022/07/25 05:05:07;;;;;;;0.50;0.28;;;24.90;60.10;;;;;;6235487;28;20067;-45
2022/07/25 05:08:23;;;;;;;0.20;0.20;;;24.80;60.10;;;;;;6240343;28;21026;-45
2022/07/25 05:11:24;;;;;;;0.63;0.40;;;24.80;60.20;;;;;;6255651;28;20131;-44
2022/07/25 05:14:29;;;;;;;0.20;0.20;;;24.80;60.30;;;;;;6238798;28;20067;-45
2022/07/25 05:17:31;;;;;;;0.20;0.20;;;24.90;60.50;;;;;;6238755;28;20060;-46
2022/07/25 05:20:32;;;;;;;0.20;0.20;;;24.70;60.40;;;;;;6247277;28;20151;-45
2022/07/25 05:23:34;;;;;;;0.38;0.20;;;24.90;60.70;;;;;;6247636;28;20047;-45
2022/07/25 05:26:36;;;;;;;0.15;0.10;;;24.80;60.70;;;;;;6236493;28;20036;-47
2022/07/25 05:29:38;;;;;;;0.20;0.20;;;24.80;60.70;;;;;;6246951;28;20109;-45
2022/07/25 05:32:40;;;;;;;0.20;0.20;;;24.90;60.90;;;;;;6236081;28;20040;-46
2022/07/25 05:35:41;;;;;;;0.30;0.28;;;24.90;60.90;;;;;;6210887;28;20079;-43
2022/07/25 05:38:44;;;;;;;0.35;0.13;;;24.80;60.90;;;;;;6257464;28;20044;-46
2022/07/25 05:41:45;;;;;;;0.17;0.17;;;24.80;61.00;;;;;;6251484;28;20036;-44
2022/07/25 05:44:47;;;;;;;0.20;0.20;;;24.90;61.10;;;;;;6198027;28;20064;-41
2022/07/25 05:47:49;;;;;;;0.20;0.20;;;24.80;61.10;;;;;;6210197;28;20945;-44
2022/07/25 05:50:50;;;;;;;0.40;0.20;;;24.90;61.20;;;;;;6216868;28;20608;-45
2022/07/25 05:53:53;;;;;;;0.50;0.20;;;24.80;61.20;;;;;;6216511;28;21579;-45
2022/07/25 05:56:54;;;;;;;0.25;0.20;;;24.90;61.30;;;;;;6196479;28;20329;-44
2022/07/25 05:59:56;;;;;;;0.50;0.28;;;24.90;61.30;;;;;;6229557;28;20036;-42
2022/07/25 06:02:59;;;;;;;0.20;0.20;;;24.90;61.40;;;;;;6210790;28;20678;-44
2022/07/25 06:06:00;;;;;;;0.20;0.20;;;24.80;61.30;;;;;;6204577;28;20726;-44
2022/07/25 06:09:03;;;;;;;0.40;0.30;;;24.80;61.30;;;;;;6213510;28;20044;-46
2022/07/25 06:12:09;;;;;;;0.35;0.30;;;24.90;61.40;;;;;;6214855;28;20789;-51
2022/07/25 06:15:11;;;;;;;0.45;0.45;;;24.90;61.40;;;;;;6202085;28;20164;-45
2022/07/25 06:18:24;;;;;;;0.30;0.30;;;24.90;61.40;;;;;;6224164;28;21197;-45
2022/07/25 06:21:26;;;;;;;0.50;0.30;;;24.90;61.30;;;;;;6207108;28;20143;-47
2022/07/25 06:24:28;;;;;;;0.30;0.30;;;24.90;61.30;;;;;;6229447;28;20064;-44
2022/07/25 06:27:29;;;;;;;0.30;0.30;;;24.70;61.10;;;;;;6225911;28;20139;-48
2022/07/25 06:30:31;;;;;;;0.50;0.30;;;24.90;61.10;;;;;;6213801;28;20041;-45
2022/07/25 06:33:32;;;;;;;1.08;0.57;;;24.90;61.00;;;;;;6221255;28;20047;-45
2022/07/25 06:36:34;;;;;;;0.32;0.28;;;24.80;60.80;;;;;;6206126;28;20079;-46
2022/07/25 06:39:36;;;;;;;0.45;0.30;;;24.80;60.70;;;;;;6216690;28;20072;-42
2022/07/25 06:42:38;;;;;;;0.30;0.30;;;24.90;60.60;;;;;;6204802;28;20048;-43
2022/07/25 06:45:45;;;;;;;0.40;0.40;;;25.00;60.60;;;;;;6199802;28;20164;-47
2022/07/25 06:48:47;;;;;;;0.40;0.30;;;24.90;60.40;;;;;;6175185;28;20153;-44
2022/07/25 06:51:49;;;;;;;0.50;0.40;;;24.90;60.20;;;;;;6208231;28;20040;-44
2022/07/25 06:54:51;;;;;;;0.60;0.30;;;25.00;60.10;;;;;;6210994;28;20044;-44
2022/07/25 06:57:53;;;;;;;0.77;0.43;;;24.90;60.00;;;;;;6190755;28;20163;-44
2022/07/25 07:00:55;;;;;;;0.32;0.30;;;24.90;59.90;;;;;;6160118;28;20052;-46
2022/07/25 07:03:56;;;;;;;1.23;0.68;;;25.00;59.80;;;;;;6161835;28;20078;-47
2022/07/25 07:06:58;;;;;;;1.27;0.63;;;25.00;59.70;;;;;;6157920;28;20120;-48
2022/07/25 07:10:00;;;;;;;2.60;0.77;;;25.20;59.60;;;;;;6167298;28;20040;-47
2022/07/25 07:13:03;;;;;;;1.50;0.73;;;25.00;59.40;;;;;;6145600;28;20151;-51
2022/07/25 07:16:07;;;;;;;4.10;0.95;;;25.00;59.40;;;;;;6132681;28;20992;-51
2022/07/25 07:19:10;;;;;;;1.90;0.70;;;25.00;59.20;;;;;;6153663;28;20063;-49
2022/07/25 07:22:12;;;;;;;3.03;0.70;;;25.00;59.10;;;;;;6148004;28;20049;-49
2022/07/25 07:25:17;;;;;;;1.65;0.85;;;25.10;59.00;;;;;;6136614;28;21695;-51
2022/07/25 07:28:20;;;;;;;2.08;0.93;;;25.00;58.50;;;;;;6143189;28;20122;-45
2022/07/25 07:31:22;;;;;;;2.03;0.60;;;24.90;58.40;;;;;;6121429;28;20083;-50
2022/07/25 07:34:24;;;;;;;1.42;0.80;;;25.20;58.40;;;;;;6151461;28;20052;-45
2022/07/25 07:37:26;;;;;;;2.03;0.90;;;25.10;58.00;;;;;;6165360;28;20054;-53
2022/07/25 07:40:33;;;;;;;1.50;0.75;;;25.20;57.70;;;;;;6136936;28;20157;-48
2022/07/25 07:43:35;;;;;;;1.02;0.90;;;25.10;57.30;;;;;;6163079;28;20182;-45
2022/07/25 07:46:37;;;;;;;1.75;0.80;;;25.30;57.10;;;;;;6148163;28;20083;-47
2022/07/25 07:49:39;;;;;;;1.17;0.70;;;25.30;56.80;;;;;;6124230;28;20105;-48
2022/07/25 07:52:40;;;;;;;1.90;0.93;;;25.30;56.40;;;;;;6146436;28;20101;-44
2022/07/25 07:55:44;;;;;;;1.63;0.93;;;25.20;56.00;;;;;;6119166;28;20225;-48
2022/07/25 07:58:45;;;;;;;1.90;0.80;;;25.40;55.70;;;;;;6113031;28;21039;-47
2022/07/25 08:01:47;;;;;;;1.30;0.80;;;25.40;56.10;;;;;;6124647;28;20044;-43
2022/07/25 08:04:49;;;;;;;1.25;0.70;;;25.40;55.30;;;;;;6106488;28;20055;-46
2022/07/25 08:07:51;;;;;;;1.65;0.70;;;25.40;55.10;;;;;;6117033;28;20134;-46
2022/07/25 08:10:57;;;;;;;0.85;0.60;;;25.40;54.90;;;;;;6104126;28;21123;-46
2022/07/25 08:14:00;;;;;;;1.25;0.70;;;25.40;54.70;;;;;;6113644;28;20036;-49
2022/07/25 08:17:02;;;;;;;0.73;0.60;;;25.50;54.70;;;;;;6117609;28;20132;-49
2022/07/25 08:20:07;;;;;;;0.88;0.65;;;25.50;54.40;;;;;;6143788;28;20079;-48
2022/07/25 08:23:30;;;;;;;1.20;0.65;;;25.50;54.20;;;;;;6128741;28;20088;-49
2022/07/25 08:26:35;;;;;;;1.17;0.60;;;25.50;53.90;;;;;;6150176;28;20208;-51
2022/07/25 08:29:37;;;;;;;7.13;0.80;;;25.50;53.70;;;;;;6139675;28;20044;-49
2022/07/25 08:32:46;;;;;;;2.88;0.57;;;25.60;53.60;;;;;;6130638;28;20072;-50
2022/07/25 08:35:51;;;;;;;1.63;0.85;;;25.60;53.40;;;;;;6117666;28;20155;-50
2022/07/25 08:38:53;;;;;;;0.82;0.50;;;25.60;53.30;;;;;;6143227;28;21261;-52
2022/07/25 08:41:56;;;;;;;0.65;0.30;;;25.60;53.20;;;;;;6147470;28;20044;-48
2022/07/25 08:45:01;;;;;;;0.32;0.28;;;25.50;53.00;;;;;;6144937;28;20174;-47
2022/07/25 08:48:03;;;;;;;2.80;0.65;;;25.60;52.80;;;;;;6139214;28;20052;-49
2022/07/25 08:51:06;;;;;;;0.52;0.32;;;25.60;52.70;;;;;;6143592;28;23818;-49
2022/07/25 08:54:09;;;;;;;0.60;0.38;;;25.70;52.60;;;;;;6136236;28;20060;-51
2022/07/25 08:57:12;;;;;;;0.45;0.38;;;25.70;52.30;;;;;;6145549;28;20055;-48
2022/07/25 09:00:16;;;;;;;0.80;0.43;;;25.80;52.20;;;;;;6116288;28;20627;-50
2022/07/25 09:03:18;;;;;;;0.73;0.30;;;25.80;52.00;;;;;;6126318;28;20116;-52
2022/07/25 09:06:21;;;;;;;0.40;0.30;;;26.00;52.00;;;;;;6138101;28;20489;-50
2022/07/25 09:09:31;;;;;;;0.57;0.28;;;25.80;51.70;;;;;;6126945;28;20067;-49
2022/07/25 09:12:33;;;;;;;0.55;0.30;;;25.80;51.40;;;;;;6126045;28;20132;-52
2022/07/25 09:15:43;;;;;;;0.60;0.40;;;25.80;51.30;;;;;;6116914;28;20071;-49
2022/07/25 09:18:45;;;;;;;1.25;0.45;;;25.90;51.20;;;;;;6106189;28;20043;-50
2022/07/25 09:21:59;;;;;;;0.90;0.28;;;25.90;51.00;;;;;;6127959;28;20048;-49
2022/07/25 09:25:00;;;;;;;1.48;0.50;;;25.80;50.60;;;;;;6134225;28;20036;-52
2022/07/25 09:28:11;;;;;;;1.23;0.30;;;25.80;50.60;;;;;;6134827;28;20044;-51
2022/07/25 09:31:14;;;;;;;0.82;0.20;;;25.80;50.40;;;;;;6142657;28;20045;-53
2022/07/25 09:34:27;;;;;;;0.52;0.20;;;25.80;50.40;;;;;;6138182;28;20044;-48
2022/07/25 09:37:29;;;;;;;0.47;0.25;;;25.90;50.50;;;;;;6142961;28;21312;-52
2022/07/25 09:40:31;;;;;;;0.52;0.30;;;25.80;50.40;;;;;;6151564;28;20130;-52
2022/07/25 09:43:37;;;;;;;1.05;0.43;;;25.80;50.40;;;;;;6141382;28;20105;-52
2022/07/25 09:46:39;;;;;;;0.60;0.20;;;25.80;50.20;;;;;;6150257;28;20254;-51
2022/07/25 09:49:43;;;;;;;0.63;0.40;;;25.60;50.00;;;;;;6158013;28;20129;-49
2022/07/25 09:52:45;;;;;;;0.95;0.20;;;25.80;50.10;;;;;;6158830;28;20032;-50
2022/07/25 09:55:46;;;;;;;0.35;0.35;;;25.80;50.00;;;;;;6130443;28;20854;-48
2022/07/25 09:58:49;;;;;;;0.60;0.40;;;25.80;49.80;;;;;;6164285;28;20055;-49
2022/07/25 10:01:59;;;;;;;0.47;0.30;;;25.80;49.80;;;;;;6161674;28;20073;-52
2022/07/25 10:05:13;;;;;;;0.40;0.28;;;25.80;49.60;;;;;;6149197;28;20040;-47
2022/07/25 10:08:16;;;;;;;0.20;0.13;;;25.80;49.50;;;;;;6103495;28;20178;-45
2022/07/25 10:11:19;;;;;;;0.68;0.30;;;25.80;49.50;;;;;;6161003;28;20127;-47
2022/07/25 10:14:22;;;;;;;0.20;0.20;;;25.90;49.50;;;;;;6143054;28;20044;-47
2022/07/25 10:17:23;;;;;;;0.60;0.40;;;25.80;49.30;;;;;;6133843;28;20153;-45
2022/07/25 10:20:28;;;;;;;0.43;0.30;;;25.80;49.30;;;;;;6146480;28;20129;-47
2022/07/25 10:23:30;;;;;;;1.40;0.30;;;25.80;49.30;;;;;;6127938;28;20083;-48
2022/07/25 10:26:33;;;;;;;1.42;0.50;;;25.90;49.30;;;;;;6158888;28;20151;-48
2022/07/25 10:29:37;;;;;;;1.05;0.40;;;25.80;49.20;;;;;;6153125;28;20076;-45
2022/07/25 10:32:49;;;;;;;0.30;0.20;;;25.90;49.10;;;;;;6175698;28;21108;-48
2022/07/25 10:35:51;;;;;;;0.45;0.22;;;25.80;48.90;;;;;;6153055;28;20041;-50
2022/07/25 10:38:57;;;;;;;0.70;0.25;;;25.80;48.90;;;;;;6162099;28;20158;-45
2022/07/25 10:42:01;;;;;;;0.57;0.20;;;25.80;48.90;;;;;;6157320;28;20043;-42
2022/07/25 10:45:08;;;;;;;0.40;0.20;;;25.70;48.80;;;;;;6184818;28;20040;-44
2022/07/25 10:48:21;;;;;;;0.98;0.20;;;25.80;48.90;;;;;;6200551;28;20143;-44
2022/07/25 10:51:26;;;;;;;0.52;0.10;;;25.80;48.90;;;;;;6166113;28;20036;-46
2022/07/25 10:54:33;;;;;;;0.28;0.20;;;25.70;48.90;;;;;;6167716;28;20047;-44
2022/07/25 10:57:35;;;;;;;0.38;0.20;;;25.60;49.00;;;;;;6181096;28;20059;-41
2022/07/25 11:00:43;;;;;;;0.68;0.32;;;25.60;49.00;;;;;;6190736;28;20044;-44
2022/07/25 11:03:45;;;;;;;0.35;0.20;;;25.60;48.90;;;;;;6192765;28;20292;-44
2022/07/25 11:06:47;;;;;;;0.20;0.13;;;25.60;49.00;;;;;;6201221;28;20050;-44
2022/07/25 11:09:57;;;;;;;0.38;0.20;;;25.50;48.90;;;;;;6189101;28;20090;-45
2022/07/25 11:12:58;;;;;;;0.20;0.20;;;25.50;48.80;;;;;;6150199;28;20081;-44
2022/07/25 11:16:00;;;;;;;0.82;0.20;;;25.50;48.80;;;;;;6186799;28;20036;-45
2022/07/25 11:19:02;;;;;;;0.20;0.10;;;25.30;48.60;;;;;;6181561;28;20052;-44
2022/07/25 11:22:04;;;;;;;0.57;0.30;;;25.60;48.60;;;;;;6170977;28;20788;-46
2022/07/25 11:25:10;;;;;;;0.20;0.20;;;25.30;48.20;;;;;;6180415;28;20215;-43
2022/07/25 11:28:12;;;;;;;0.73;0.30;;;25.50;48.20;;;;;;6180446;28;20055;-45
2022/07/25 11:31:16;;;;;;;0.10;0.10;;;25.50;48.10;;;;;;6177377;28;20075;-43
2022/07/25 11:34:21;;;;;;;0.30;0.20;;;25.40;47.90;;;;;;6117085;28;21608;-43
2022/07/25 11:37:23;;;;;;;0.20;0.10;;;25.50;48.00;;;;;;6180245;28;20114;-45
2022/07/25 11:40:26;;;;;;;0.25;0.20;;;25.40;47.80;;;;;;6177389;28;20306;-42
2022/07/25 11:43:28;;;;;;;0.20;0.13;;;25.50;47.70;;;;;;6144653;28;21459;-46
2022/07/25 11:46:41;;;;;;;0.75;0.20;;;25.40;47.40;;;;;;6145247;28;21248;-46
2022/07/25 11:49:44;;;;;;;0.10;0.10;;;25.40;47.30;;;;;;6161506;28;23357;-45
2022/07/25 11:52:46;;;;;;;0.55;0.10;;;25.40;47.30;;;;;;6171273;28;20044;-50
2022/07/25 11:55:47;;;;;;;0.20;0.10;;;25.20;47.00;;;;;;6143850;28;20044;-46
2022/07/25 11:58:57;;;;;;;0.20;0.20;;;25.40;47.00;;;;;;6155611;28;20037;-49
2022/07/25 12:01:59;;;;;;;0.60;0.20;;;25.30;46.80;;;;;;6125882;28;20150;-45
2022/07/25 12:05:03;;;;;;;0.20;0.10;;;25.40;46.80;;;;;;6132004;28;20305;-45
2022/07/25 12:08:10;;;;;;;0.13;0.10;;;25.30;46.60;;;;;;6144415;28;21101;-50
2022/07/25 12:11:19;;;;;;;0.40;0.20;;;25.50;46.70;;;;;;6147596;28;20040;-51
2022/07/25 12:14:21;;;;;;;0.55;0.10;;;25.40;46.60;;;;;;6148527;28;22262;-48
2022/07/25 12:17:23;;;;;;;0.30;0.30;;;25.40;46.50;;;;;;6168989;28;20142;-43
2022/07/25 12:20:27;;;;;;;0.50;0.20;;;25.40;46.40;;;;;;6146683;28;20048;-47
2022/07/25 12:23:29;;;;;;;0.20;0.10;;;25.30;46.30;;;;;;6127271;28;21158;-48
2022/07/25 12:26:30;;;;;;;0.10;0.10;;;25.50;46.40;;;;;;6130409;28;20036;-50
2022/07/25 12:29:32;;;;;;;0.10;0.10;;;25.40;46.30;;;;;;6153354;28;20186;-48
2022/07/25 12:32:35;;;;;;;0.28;0.10;;;25.50;46.30;;;;;;6146826;28;20071;-47
2022/07/25 12:35:37;;;;;;;0.10;0.10;;;25.00;45.90;;;;;;6140213;28;20036;-51
2022/07/25 12:38:40;;;;;;;0.10;0.10;;;25.50;46.10;;;;;;6166566;28;20052;-50
2022/07/25 12:41:41;;;;;;;0.10;0.10;;;25.50;46.10;;;;;;6144377;28;20221;-48
2022/07/25 12:44:43;;;;;;;0.22;0.10;;;25.50;46.20;;;;;;6123106;28;20040;-46
2022/07/25 12:47:46;;;;;;;0.32;0.10;;;25.50;46.00;;;;;;6152877;28;20159;-48
2022/07/25 12:50:51;;;;;;;0.10;0.10;;;25.60;46.00;;;;;;6145403;28;20054;-49
2022/07/25 12:53:53;;;;;;;0.28;0.10;;;25.50;45.80;;;;;;6123706;28;21604;-49
2022/07/25 12:56:54;;;;;;;0.10;0.10;;;25.60;45.90;;;;;;6124989;28;20378;-49
2022/07/25 12:59:56;;;;;;;0.10;0.10;;;25.50;45.70;;;;;;6133446;28;21058;-49
2022/07/25 13:02:58;;;;;;;0.60;0.20;;;25.60;45.80;;;;;;6129266;28;21104;-48
2022/07/25 13:06:00;;;;;;;0.50;0.25;;;25.50;45.60;;;;;;6175978;28;20041;-48
2022/07/25 13:09:03;;;;;;;0.20;0.10;;;25.50;45.50;;;;;;6179499;28;20048;-50
2022/07/25 13:12:05;;;;;;;0.20;0.10;;;25.50;45.40;;;;;;6157973;28;20050;-48
2022/07/25 13:15:08;;;;;;;1.23;0.20;;;25.60;45.40;;;;;;6177523;28;20876;-49
2022/07/25 13:18:10;;;;;;;0.28;0.15;;;25.50;45.30;;;;;;6171518;28;20044;-53
2022/07/25 13:21:12;;;;;;;0.20;0.10;;;25.40;45.10;;;;;;6186949;28;20044;-52
2022/07/25 13:24:14;;;;;;;0.17;0.10;;;25.60;45.20;;;;;;6167218;28;20043;-51
2022/07/25 13:27:18;;;;;;;0.35;0.20;;;25.50;45.10;;;;;;6167362;28;20063;-51
2022/07/25 13:30:19;;;;;;;0.32;0.20;;;25.50;45.00;;;;;;6165545;28;20985;-48
2022/07/25 13:33:23;;;;;;;0.52;0.20;;;25.70;45.10;;;;;;6172244;28;20052;-50
2022/07/25 13:36:25;;;;;;;0.15;0.10;;;25.40;44.90;;;;;;6152383;28;20050;-48
2022/07/25 13:39:26;;;;;;;0.90;0.25;;;25.60;45.00;;;;;;6167902;28;20046;-53
2022/07/25 13:42:29;;;;;;;0.30;0.20;;;25.70;45.00;;;;;;6168339;28;20120;-47
2022/07/25 13:45:31;;;;;;;0.25;0.20;;;25.40;44.90;;;;;;6154910;28;21671;-51
2022/07/25 13:48:33;;;;;;;0.28;0.20;;;25.70;45.10;;;;;;6160707;28;20044;-48
2022/07/25 13:51:35;;;;;;;0.28;0.20;;;25.60;45.10;;;;;;6156621;28;20051;-50
2022/07/25 13:54:38;;;;;;;1.55;0.20;;;25.50;45.10;;;;;;6155946;28;21206;-48
2022/07/25 13:57:39;;;;;;;0.52;0.20;;;25.40;45.10;;;;;;6161640;28;20121;-48
2022/07/25 14:00:43;;;;;;;0.95;0.10;;;25.50;45.30;;;;;;6080717;28;20180;-47
2022/07/25 14:03:45;;;;;;;0.73;0.10;;;25.50;45.30;;;;;;6086132;28;20043;-49
2022/07/25 14:06:50;;;;;;;0.17;0.17;;;25.40;45.20;;;;;;6087026;28;22300;-49
2022/07/25 14:09:52;;;;;;;0.30;0.20;;;25.50;45.30;;;;;;6102421;28;20400;-49
2022/07/25 14:12:53;;;;;;;0.10;0.10;;;25.40;45.20;;;;;;6109077;28;20217;-51
2022/07/25 14:15:55;;;;;;;0.88;0.20;;;25.50;45.30;;;;;;6122170;28;20150;-52
2022/07/25 14:18:57;;;;;;;0.22;0.17;;;25.50;45.30;;;;;;6151626;28;20058;-47
2022/07/25 14:21:59;;;;;;;0.30;0.10;;;25.50;45.30;;;;;;6126317;28;20905;-49
2022/07/25 14:25:01;;;;;;;0.13;0.10;;;25.50;45.30;;;;;;6137868;28;21420;-47
2022/07/25 14:28:03;;;;;;;0.10;0.08;;;25.60;45.30;;;;;;6124419;28;20508;-49
2022/07/25 14:31:05;;;;;;;0.40;0.15;;;25.70;45.40;;;;;;6153392;28;20055;-49
2022/07/25 14:34:07;;;;;;;0.22;0.15;;;25.60;45.30;;;;;;6127260;28;20515;-52
2022/07/25 14:37:09;;;;;;;0.43;0.10;;;25.60;45.30;;;;;;6148000;28;20273;-51
2022/07/25 14:40:13;;;;;;;0.22;0.10;;;25.60;45.40;;;;;;6148060;28;20056;-52
2022/07/25 14:43:14;;;;;;;0.70;0.20;;;25.50;45.20;;;;;;6125639;28;20052;-52
2022/07/25 14:46:16;;;;;;;0.40;0.20;;;25.60;45.30;;;;;;6106275;28;20204;-49
2022/07/25 14:49:18;;;;;;;0.43;0.20;;;25.60;45.30;;;;;;6108332;28;20310;-51
2022/07/25 14:52:21;;;;;;;0.30;0.20;;;25.70;45.30;;;;;;6145526;28;21110;-49
2022/07/25 14:55:26;;;;;;;0.20;0.10;;;25.60;45.30;;;;;;6136393;28;20801;-49
2022/07/25 14:58:28;;;;;;;0.40;0.13;;;25.80;45.40;;;;;;6137238;28;20451;-48
2022/07/25 15:01:30;;;;;;;0.28;0.20;;;25.70;45.30;;;;;;6135007;28;20361;-51
2022/07/25 15:04:32;;;;;;;0.13;0.10;;;25.50;45.20;;;;;;6139120;28;20181;-49
2022/07/25 15:07:35;;;;;;;0.17;0.10;;;25.60;45.30;;;;;;6134277;28;20644;-50
2022/07/25 15:10:37;;;;;;;0.13;0.13;;;25.60;45.30;;;;;;6144132;28;20183;-50
2022/07/25 15:13:39;;;;;;;0.10;0.10;;;25.40;45.30;;;;;;6103339;28;21711;-47
2022/07/25 15:16:41;;;;;;;0.68;0.20;;;25.60;45.50;;;;;;6129511;28;20048;-48
2022/07/25 15:19:44;;;;;;;0.10;0.10;;;25.70;45.60;;;;;;6131525;28;20147;-48
2022/07/25 15:22:48;;;;;;;0.40;0.10;;;25.50;45.50;;;;;;6131004;28;20542;-49
2022/07/25 15:25:53;;;;;;;0.10;0.10;;;25.70;45.80;;;;;;6139929;28;20958;-51
2022/07/25 15:29:06;;;;;;;0.20;0.10;;;25.70;45.80;;;;;;6127711;28;20044;-52
2022/07/25 15:32:08;;;;;;;0.10;0.10;;;25.70;45.90;;;;;;6132307;28;20161;-48
2022/07/25 15:35:11;;;;;;;0.10;0.08;;;25.80;46.10;;;;;;6144468;28;20219;-47
2022/07/25 15:38:13;;;;;;;0.82;0.20;;;25.70;46.10;;;;;;6152364;28;20551;-43
2022/07/25 15:41:15;;;;;;;0.40;0.20;;;25.70;46.40;;;;;;6122917;28;20777;-44
2022/07/25 15:44:16;;;;;;;0.30;0.10;;;25.70;46.70;;;;;;6146688;28;20302;-44
2022/07/25 15:47:18;;;;;;;0.03;0.00;;;25.50;46.90;;;;;;6158293;28;21173;-47
2022/07/25 15:50:20;;;;;;;0.00;0.00;;;25.70;47.80;;;;;;6159076;28;20620;-50
2022/07/25 15:53:22;;;;;;;0.17;0.10;;;25.60;48.20;;;;;;6171570;28;20055;-47